EWG51P EDDS-EDDH
Flight info
| Callsign | EWG51P |
|---|---|
| Flight time | 0h 57m |
| Altitude | 35000 |
| Route | OKIBA4H/07 OKIBA N851 RIMKI Z99 LOHRE DCT MASEK DCT ELNAT P605 NOLGO NOLGO3S |
| Aircraft | A321/M-SDE3FGHIRWY/LB1 |
Departure
| Time | 2026-04-25 13:43 |
|---|---|
| Airport | Stuttgart Airport (EDDS) |
Arrival
| Time | 2026-04-25 14:40 |
|---|---|
| Airport | Hamburg Helmut Schmidt Airport (EDDH) |
| Time | Latitude | Longitude | Altitude | Speed | Heading |
|---|---|---|---|---|---|
| 2026-04-25 13:13 | 48.68795 | 9.19682 | 1304 ft | 0 kts | 163° |
| 2026-04-25 13:39 | 48.68794 | 9.19683 | 1304 ft | 2 kts | 163° |
| 2026-04-25 13:39 | 48.68759 | 9.19700 | 1302 ft | 8 kts | 153° |
| 2026-04-25 13:39 | 48.68750 | 9.19802 | 1298 ft | 13 kts | 76° |
| 2026-04-25 13:39 | 48.68746 | 9.19948 | 1293 ft | 17 kts | 132° |
| 2026-04-25 13:40 | 48.68692 | 9.19983 | 1289 ft | 0 kts | 163° |
| 2026-04-25 13:40 | 48.68685 | 9.19986 | 1289 ft | 4 kts | 163° |
| 2026-04-25 13:40 | 48.68640 | 9.20014 | 1288 ft | 11 kts | 148° |
| 2026-04-25 13:41 | 48.68599 | 9.20125 | 1283 ft | 14 kts | 90° |
| 2026-04-25 13:41 | 48.68617 | 9.20241 | 1280 ft | 0 kts | 73° |
| 2026-04-25 13:41 | 48.68620 | 9.20257 | 1279 ft | 4 kts | 73° |
| 2026-04-25 13:41 | 48.68631 | 9.20315 | 1277 ft | 8 kts | 73° |
| 2026-04-25 13:42 | 48.68657 | 9.20448 | 1274 ft | 31 kts | 74° |
| 2026-04-25 13:42 | 48.68790 | 9.21150 | 1265 ft | 105 kts | 74° |
| 2026-04-25 13:42 | 48.69050 | 9.22525 | 1227 ft | 164 kts | 74° |
| 2026-04-25 13:42 | 48.69379 | 9.24329 | 1630 ft | 180 kts | 71° |
| 2026-04-25 13:43 | 48.69675 | 9.26133 | 2492 ft | 175 kts | 74° |
| 2026-04-25 13:43 | 48.69996 | 9.27983 | 2938 ft | 191 kts | 72° |
| 2026-04-25 13:43 | 48.70393 | 9.30000 | 3212 ft | 208 kts | 71° |
| 2026-04-25 13:43 | 48.70841 | 9.32174 | 3622 ft | 224 kts | 70° |
| 2026-04-25 13:44 | 48.71328 | 9.34535 | 3824 ft | 248 kts | 71° |
| 2026-04-25 13:44 | 48.71849 | 9.37170 | 4101 ft | 270 kts | 71° |
| 2026-04-25 13:44 | 48.72384 | 9.39928 | 4842 ft | 274 kts | 72° |
| 2026-04-25 13:44 | 48.72905 | 9.42705 | 5597 ft | 275 kts | 73° |
| 2026-04-25 13:45 | 48.73431 | 9.45522 | 6253 ft | 283 kts | 73° |
| 2026-04-25 13:45 | 48.73966 | 9.48423 | 6893 ft | 289 kts | 73° |
| 2026-04-25 13:45 | 48.74954 | 9.51044 | 7400 ft | 289 kts | 38° |
| 2026-04-25 13:45 | 48.76703 | 9.52367 | 8168 ft | 282 kts | 10° |
| 2026-04-25 13:46 | 48.78642 | 9.52573 | 8912 ft | 278 kts | 353° |
| 2026-04-25 13:46 | 48.80570 | 9.52252 | 9601 ft | 282 kts | 352° |
| 2026-04-25 13:46 | 48.82537 | 9.52002 | 10269 ft | 286 kts | 353° |
| 2026-04-25 13:46 | 48.84589 | 9.51783 | 10460 ft | 307 kts | 354° |
| 2026-04-25 13:47 | 48.86799 | 9.51560 | 10591 ft | 328 kts | 354° |
| 2026-04-25 13:47 | 48.89122 | 9.51324 | 10965 ft | 338 kts | 354° |
| 2026-04-25 13:47 | 48.91485 | 9.51079 | 11519 ft | 342 kts | 354° |
| 2026-04-25 13:47 | 48.93870 | 9.50814 | 12143 ft | 344 kts | 352° |
| 2026-04-25 13:48 | 48.96209 | 9.50060 | 12741 ft | 345 kts | 340° |
| 2026-04-25 13:48 | 48.98387 | 9.48638 | 13331 ft | 347 kts | 333° |
| 2026-04-25 13:48 | 49.00564 | 9.47023 | 13950 ft | 349 kts | 333° |
| 2026-04-25 13:48 | 49.02754 | 9.45407 | 14492 ft | 351 kts | 333° |
| 2026-04-25 13:49 | 49.04995 | 9.43760 | 15044 ft | 354 kts | 333° |
| 2026-04-25 13:49 | 49.07193 | 9.42149 | 15564 ft | 356 kts | 333° |
| 2026-04-25 13:49 | 49.09434 | 9.40506 | 16095 ft | 359 kts | 333° |
| 2026-04-25 13:49 | 49.11691 | 9.38845 | 16627 ft | 361 kts | 333° |
| 2026-04-25 13:50 | 49.13963 | 9.37166 | 17151 ft | 364 kts | 333° |
| 2026-04-25 13:50 | 49.16244 | 9.35480 | 17685 ft | 366 kts | 333° |
| 2026-04-25 13:50 | 49.18549 | 9.33778 | 18216 ft | 368 kts | 333° |
| 2026-04-25 13:50 | 49.20931 | 9.32284 | 18663 ft | 372 kts | 341° |
| 2026-04-25 13:51 | 49.23479 | 9.31476 | 19103 ft | 377 kts | 352° |
| 2026-04-25 13:51 | 49.26112 | 9.31232 | 19533 ft | 381 kts | 354° |
| 2026-04-25 13:51 | 49.28769 | 9.31030 | 19962 ft | 383 kts | 354° |
| 2026-04-25 13:51 | 49.31442 | 9.30825 | 20380 ft | 386 kts | 354° |
| 2026-04-25 13:52 | 49.34136 | 9.30620 | 20797 ft | 388 kts | 354° |
| 2026-04-25 13:52 | 49.36852 | 9.30716 | 21198 ft | 393 kts | 2° |
| 2026-04-25 13:52 | 49.39580 | 9.31123 | 21654 ft | 394 kts | 3° |
| 2026-04-25 13:52 | 49.42317 | 9.31533 | 22113 ft | 396 kts | 3° |
| 2026-04-25 13:53 | 49.45061 | 9.31944 | 22519 ft | 398 kts | 3° |
| 2026-04-25 13:53 | 49.47826 | 9.32357 | 22925 ft | 400 kts | 3° |
| 2026-04-25 13:53 | 49.50602 | 9.32771 | 23326 ft | 402 kts | 3° |
| 2026-04-25 13:53 | 49.53399 | 9.33186 | 23717 ft | 405 kts | 3° |
| 2026-04-25 13:54 | 49.56208 | 9.33601 | 24052 ft | 407 kts | 3° |
| 2026-04-25 13:54 | 49.59026 | 9.34018 | 24405 ft | 408 kts | 3° |
| 2026-04-25 13:54 | 49.61852 | 9.34439 | 24788 ft | 408 kts | 4° |
| 2026-04-25 13:54 | 49.64682 | 9.34861 | 25166 ft | 409 kts | 4° |
| 2026-04-25 13:55 | 49.67520 | 9.35285 | 25516 ft | 410 kts | 4° |
| 2026-04-25 13:55 | 49.70349 | 9.35712 | 25919 ft | 407 kts | 4° |
| 2026-04-25 13:55 | 49.73179 | 9.36138 | 26143 ft | 411 kts | 3° |
| 2026-04-25 13:55 | 49.76020 | 9.36814 | 26415 ft | 415 kts | 11° |
| 2026-04-25 13:56 | 49.78833 | 9.37896 | 26738 ft | 417 kts | 11° |
| 2026-04-25 13:56 | 49.81653 | 9.38981 | 27060 ft | 419 kts | 12° |
| 2026-04-25 13:56 | 49.84486 | 9.40072 | 27416 ft | 419 kts | 12° |
| 2026-04-25 13:56 | 49.87319 | 9.41157 | 27739 ft | 420 kts | 11° |
| 2026-04-25 13:57 | 49.90166 | 9.42248 | 28045 ft | 422 kts | 11° |
| 2026-04-25 13:57 | 49.91094 | 9.42604 | 28148 ft | 423 kts | 11° |
| 2026-04-25 13:57 | 49.95891 | 9.44449 | 28656 ft | 425 kts | 11° |
| 2026-04-25 13:57 | 49.98771 | 9.45563 | 28945 ft | 427 kts | 11° |
| 2026-04-25 13:58 | 50.01622 | 9.46670 | 29235 ft | 429 kts | 11° |
| 2026-04-25 13:58 | 50.04558 | 9.47809 | 29539 ft | 430 kts | 11° |
| 2026-04-25 13:58 | 50.07484 | 9.48769 | 29812 ft | 429 kts | 5° |
| 2026-04-25 13:58 | 50.10415 | 9.49275 | 30058 ft | 430 kts | 3° |
| 2026-04-25 13:59 | 50.13427 | 9.49770 | 30280 ft | 431 kts | 3° |
| 2026-04-25 13:59 | 50.16382 | 9.50254 | 30477 ft | 433 kts | 3° |
| 2026-04-25 13:59 | 50.19415 | 9.50757 | 30668 ft | 434 kts | 3° |
| 2026-04-25 13:59 | 50.22376 | 9.51251 | 30915 ft | 434 kts | 3° |
| 2026-04-25 14:00 | 50.23392 | 9.51422 | 31007 ft | 433 kts | 3° |
| 2026-04-25 14:00 | 50.28369 | 9.52261 | 31441 ft | 432 kts | 3° |
| 2026-04-25 14:00 | 50.31361 | 9.52766 | 31707 ft | 432 kts | 3° |
| 2026-04-25 14:00 | 50.34345 | 9.53268 | 31984 ft | 431 kts | 3° |
| 2026-04-25 14:01 | 50.37323 | 9.53769 | 32249 ft | 431 kts | 3° |
| 2026-04-25 14:01 | 50.40298 | 9.54272 | 32501 ft | 430 kts | 3° |
| 2026-04-25 14:01 | 50.43274 | 9.54780 | 32753 ft | 430 kts | 3° |
| 2026-04-25 14:01 | 50.46247 | 9.55289 | 33007 ft | 429 kts | 3° |
| 2026-04-25 14:02 | 50.49217 | 9.55795 | 33265 ft | 429 kts | 2° |
| 2026-04-25 14:02 | 50.52183 | 9.56298 | 33493 ft | 429 kts | 2° |
| 2026-04-25 14:02 | 50.55151 | 9.56802 | 33734 ft | 429 kts | 2° |
| 2026-04-25 14:03 | 50.61078 | 9.57805 | 34198 ft | 428 kts | 2° |
| 2026-04-25 14:03 | 50.64039 | 9.58306 | 34401 ft | 428 kts | 2° |
| 2026-04-25 14:03 | 50.67002 | 9.58812 | 34604 ft | 428 kts | 2° |
| 2026-04-25 14:03 | 50.69959 | 9.59319 | 34804 ft | 427 kts | 2° |
| 2026-04-25 14:04 | 50.72918 | 9.59825 | 35004 ft | 427 kts | 2° |
| 2026-04-25 14:04 | 50.78777 | 9.60906 | 35099 ft | 425 kts | 3° |
| 2026-04-25 14:05 | 50.84669 | 9.62087 | 35097 ft | 424 kts | 3° |
| 2026-04-25 14:05 | 50.90522 | 9.63254 | 35097 ft | 424 kts | 3° |
| 2026-04-25 14:06 | 50.96338 | 9.64383 | 35098 ft | 423 kts | 2° |
| 2026-04-25 14:06 | 51.02183 | 9.65513 | 35100 ft | 423 kts | 2° |
| 2026-04-25 14:07 | 51.08029 | 9.66657 | 35109 ft | 424 kts | 3° |
| 2026-04-25 14:07 | 51.13884 | 9.67804 | 35114 ft | 424 kts | 2° |
| 2026-04-25 14:08 | 51.19719 | 9.68955 | 35139 ft | 424 kts | 2° |
| 2026-04-25 14:08 | 51.20570 | 9.69124 | 35138 ft | 423 kts | 2° |
| 2026-04-25 14:10 | 51.22125 | 9.69456 | 35139 ft | 423 kts | 2° |
| 2026-04-25 14:10 | 51.27896 | 9.70455 | 35134 ft | 421 kts | 1° |
| 2026-04-25 14:11 | 51.33723 | 9.71285 | 35136 ft | 420 kts | 0° |
| 2026-04-25 14:11 | 51.39545 | 9.72167 | 35133 ft | 420 kts | 1° |
| 2026-04-25 14:12 | 51.45347 | 9.73117 | 35134 ft | 418 kts | 1° |
| 2026-04-25 14:12 | 51.51127 | 9.74124 | 35129 ft | 418 kts | 1° |
| 2026-04-25 14:13 | 51.56865 | 9.75233 | 35126 ft | 418 kts | 2° |
| 2026-04-25 14:13 | 51.62640 | 9.76359 | 34909 ft | 417 kts | 2° |
| 2026-04-25 14:13 | 51.65512 | 9.76911 | 34688 ft | 415 kts | 1° |
| 2026-04-25 14:14 | 51.68373 | 9.77457 | 34447 ft | 413 kts | 1° |
| 2026-04-25 14:14 | 51.71228 | 9.77998 | 34202 ft | 411 kts | 1° |
| 2026-04-25 14:14 | 51.74057 | 9.78535 | 33940 ft | 409 kts | 1° |
| 2026-04-25 14:14 | 51.76871 | 9.79070 | 33668 ft | 407 kts | 1° |
| 2026-04-25 14:15 | 51.79674 | 9.79603 | 33398 ft | 405 kts | 1° |
| 2026-04-25 14:15 | 51.81531 | 9.79960 | 33218 ft | 404 kts | 1° |
| 2026-04-25 14:15 | 51.85249 | 9.80676 | 32860 ft | 401 kts | 1° |
| 2026-04-25 14:15 | 51.88024 | 9.81208 | 32628 ft | 399 kts | 1° |
| 2026-04-25 14:16 | 51.90768 | 9.81736 | 32360 ft | 396 kts | 1° |
| 2026-04-25 14:16 | 51.93489 | 9.82260 | 32093 ft | 392 kts | 1° |
| 2026-04-25 14:16 | 51.96179 | 9.82779 | 31656 ft | 387 kts | 1° |
| 2026-04-25 14:16 | 51.98840 | 9.83297 | 31116 ft | 384 kts | 1° |
| 2026-04-25 14:17 | 52.01485 | 9.83814 | 30624 ft | 381 kts | 1° |
| 2026-04-25 14:17 | 52.04109 | 9.84328 | 30160 ft | 378 kts | 0° |
| 2026-04-25 14:17 | 52.06702 | 9.84835 | 29644 ft | 374 kts | 1° |
| 2026-04-25 14:17 | 52.09270 | 9.85339 | 29183 ft | 369 kts | 1° |
| 2026-04-25 14:18 | 52.11768 | 9.85831 | 28774 ft | 364 kts | 0° |
| 2026-04-25 14:18 | 52.14266 | 9.86322 | 28295 ft | 360 kts | 0° |
| 2026-04-25 14:18 | 52.16732 | 9.86801 | 27871 ft | 355 kts | 0° |
| 2026-04-25 14:18 | 52.19174 | 9.87271 | 27448 ft | 351 kts | 0° |
| 2026-04-25 14:19 | 52.21587 | 9.87738 | 27038 ft | 347 kts | 0° |
| 2026-04-25 14:19 | 52.23971 | 9.88204 | 26637 ft | 343 kts | 0° |
| 2026-04-25 14:19 | 52.26309 | 9.88948 | 26233 ft | 345 kts | 8° |
| 2026-04-25 14:19 | 52.28616 | 9.89973 | 25842 ft | 341 kts | 8° |
| 2026-04-25 14:20 | 52.30901 | 9.90980 | 25450 ft | 340 kts | 8° |
| 2026-04-25 14:20 | 52.32412 | 9.91643 | 25189 ft | 339 kts | 8° |
| 2026-04-25 14:20 | 52.35444 | 9.92973 | 24691 ft | 337 kts | 8° |
| 2026-04-25 14:20 | 52.37698 | 9.93965 | 24279 ft | 334 kts | 8° |
| 2026-04-25 14:21 | 52.39942 | 9.94956 | 23876 ft | 333 kts | 8° |
| 2026-04-25 14:21 | 52.42173 | 9.95944 | 23446 ft | 331 kts | 8° |
| 2026-04-25 14:21 | 52.44393 | 9.96924 | 23002 ft | 330 kts | 8° |
| 2026-04-25 14:21 | 52.46599 | 9.97899 | 22586 ft | 328 kts | 7° |
| 2026-04-25 14:22 | 52.48797 | 9.98870 | 22174 ft | 326 kts | 7° |
| 2026-04-25 14:22 | 52.50981 | 9.99838 | 21753 ft | 324 kts | 7° |
| 2026-04-25 14:22 | 52.53147 | 10.00802 | 21337 ft | 322 kts | 7° |
| 2026-04-25 14:22 | 52.55304 | 10.01762 | 20925 ft | 320 kts | 7° |
| 2026-04-25 14:23 | 52.57449 | 10.02715 | 20512 ft | 318 kts | 7° |
| 2026-04-25 14:23 | 52.59580 | 10.03661 | 20119 ft | 317 kts | 7° |
| 2026-04-25 14:23 | 52.61700 | 10.04603 | 19691 ft | 315 kts | 7° |
| 2026-04-25 14:23 | 52.63809 | 10.05542 | 19282 ft | 313 kts | 7° |
| 2026-04-25 14:24 | 52.65902 | 10.06477 | 18873 ft | 311 kts | 7° |
| 2026-04-25 14:24 | 52.67954 | 10.07400 | 18476 ft | 309 kts | 7° |
| 2026-04-25 14:24 | 52.70020 | 10.08332 | 18028 ft | 307 kts | 7° |
| 2026-04-25 14:24 | 52.72072 | 10.09256 | 17620 ft | 305 kts | 6° |
| 2026-04-25 14:25 | 52.74114 | 10.10173 | 17215 ft | 303 kts | 6° |
| 2026-04-25 14:25 | 52.76140 | 10.11086 | 16817 ft | 301 kts | 6° |
| 2026-04-25 14:25 | 52.78158 | 10.11763 | 16423 ft | 291 kts | 356° |
| 2026-04-25 14:25 | 52.79513 | 10.11848 | 16170 ft | 287 kts | 353° |
| 2026-04-25 14:26 | 52.82147 | 10.11914 | 15688 ft | 285 kts | 353° |
| 2026-04-25 14:26 | 52.84120 | 10.11979 | 15289 ft | 283 kts | 353° |
| 2026-04-25 14:26 | 52.86083 | 10.12050 | 14911 ft | 281 kts | 353° |
| 2026-04-25 14:26 | 52.88024 | 10.12122 | 14543 ft | 279 kts | 353° |
| 2026-04-25 14:27 | 52.89954 | 10.12191 | 14177 ft | 277 kts | 353° |
| 2026-04-25 14:27 | 52.91874 | 10.12256 | 13806 ft | 275 kts | 353° |
| 2026-04-25 14:27 | 52.93781 | 10.12318 | 13412 ft | 273 kts | 353° |
| 2026-04-25 14:27 | 52.95681 | 10.12379 | 13047 ft | 272 kts | 353° |
| 2026-04-25 14:28 | 52.97562 | 10.12441 | 12688 ft | 270 kts | 353° |
| 2026-04-25 14:28 | 52.99436 | 10.12503 | 12331 ft | 269 kts | 353° |
| 2026-04-25 14:28 | 53.01298 | 10.12571 | 11979 ft | 267 kts | 353° |
| 2026-04-25 14:28 | 53.03158 | 10.12698 | 11656 ft | 267 kts | 354° |
| 2026-04-25 14:29 | 53.05007 | 10.12865 | 11328 ft | 266 kts | 355° |
| 2026-04-25 14:29 | 53.06851 | 10.13045 | 11001 ft | 264 kts | 355° |
| 2026-04-25 14:29 | 53.08677 | 10.13222 | 10679 ft | 262 kts | 355° |
| 2026-04-25 14:29 | 53.10495 | 10.13397 | 10360 ft | 261 kts | 355° |
| 2026-04-25 14:30 | 53.12303 | 10.13569 | 10149 ft | 261 kts | 355° |
| 2026-04-25 14:30 | 53.15974 | 10.13909 | 9882 ft | 266 kts | 355° |
| 2026-04-25 14:30 | 53.17815 | 10.14079 | 9390 ft | 268 kts | 355° |
| 2026-04-25 14:31 | 53.19671 | 10.14253 | 8883 ft | 268 kts | 355° |
| 2026-04-25 14:31 | 53.21518 | 10.14427 | 8345 ft | 266 kts | 355° |
| 2026-04-25 14:31 | 53.23332 | 10.14605 | 7797 ft | 260 kts | 355° |
| 2026-04-25 14:31 | 53.25150 | 10.14777 | 7343 ft | 262 kts | 355° |
| 2026-04-25 14:32 | 53.26964 | 10.14947 | 6906 ft | 263 kts | 355° |
| 2026-04-25 14:32 | 53.28770 | 10.15117 | 6620 ft | 258 kts | 355° |
| 2026-04-25 14:32 | 53.30550 | 10.15286 | 6073 ft | 255 kts | 355° |
| 2026-04-25 14:32 | 53.32328 | 10.15451 | 5586 ft | 255 kts | 355° |
| 2026-04-25 14:33 | 53.34087 | 10.15616 | 5089 ft | 252 kts | 355° |
| 2026-04-25 14:33 | 53.35829 | 10.15778 | 4552 ft | 250 kts | 356° |
| 2026-04-25 14:33 | 53.37565 | 10.15940 | 3945 ft | 250 kts | 356° |
| 2026-04-25 14:33 | 53.39264 | 10.16105 | 3736 ft | 235 kts | 356° |
| 2026-04-25 14:34 | 53.40829 | 10.16266 | 3665 ft | 219 kts | 356° |
| 2026-04-25 14:34 | 53.42306 | 10.16411 | 3592 ft | 205 kts | 355° |
| 2026-04-25 14:34 | 53.43628 | 10.16165 | 3511 ft | 179 kts | 338° |
| 2026-04-25 14:34 | 53.44683 | 10.15406 | 3440 ft | 153 kts | 327° |
| 2026-04-25 14:35 | 53.45569 | 10.14648 | 3368 ft | 136 kts | 327° |
| 2026-04-25 14:35 | 53.46403 | 10.13932 | 3308 ft | 134 kts | 326° |
| 2026-04-25 14:35 | 53.47231 | 10.13218 | 3249 ft | 133 kts | 326° |
| 2026-04-25 14:35 | 53.48054 | 10.12510 | 3199 ft | 133 kts | 326° |
| 2026-04-25 14:36 | 53.48877 | 10.11803 | 3131 ft | 133 kts | 326° |
| 2026-04-25 14:36 | 53.49700 | 10.11095 | 3038 ft | 134 kts | 326° |
| 2026-04-25 14:36 | 53.50525 | 10.10385 | 2832 ft | 133 kts | 327° |
| 2026-04-25 14:36 | 53.51350 | 10.09671 | 2632 ft | 133 kts | 327° |
| 2026-04-25 14:37 | 53.52169 | 10.08968 | 2459 ft | 130 kts | 327° |
| 2026-04-25 14:37 | 53.52966 | 10.08284 | 2291 ft | 131 kts | 326° |
| 2026-04-25 14:37 | 53.53781 | 10.07575 | 2135 ft | 131 kts | 327° |
| 2026-04-25 14:37 | 53.54596 | 10.06874 | 1934 ft | 132 kts | 327° |
| 2026-04-25 14:38 | 53.55407 | 10.06162 | 1751 ft | 130 kts | 326° |
| 2026-04-25 14:38 | 53.56209 | 10.05451 | 1547 ft | 130 kts | 327° |
| 2026-04-25 14:38 | 53.57010 | 10.04760 | 1395 ft | 130 kts | 328° |
| 2026-04-25 14:38 | 53.57821 | 10.04058 | 1305 ft | 131 kts | 326° |
| 2026-04-25 14:39 | 53.58635 | 10.03365 | 1052 ft | 133 kts | 328° |
| 2026-04-25 14:39 | 53.59446 | 10.02706 | 812 ft | 128 kts | 326° |
| 2026-04-25 14:39 | 53.60240 | 10.02023 | 642 ft | 130 kts | 326° |
| 2026-04-25 14:39 | 53.61046 | 10.01318 | 472 ft | 130 kts | 324° |
| 2026-04-25 14:40 | 53.61313 | 10.01088 | 435 ft | 125 kts | 326° |
| 2026-04-25 14:40 | 53.62594 | 9.99980 | 166 ft | 127 kts | 325° |
| 2026-04-25 14:40 | 53.63367 | 9.99315 | 48 ft | 116 kts | 330° |
| 2026-04-25 14:40 | 53.63889 | 9.98855 | 50 ft | 38 kts | 333° |
| 2026-04-25 14:41 | 53.63968 | 9.98847 | 51 ft | 9 kts | 90° |
| 2026-04-25 14:41 | 53.63931 | 9.98958 | 49 ft | 14 kts | 126° |
| 2026-04-25 14:41 | 53.63884 | 9.99065 | 49 ft | 4 kts | 126° |
| 2026-04-25 14:41 | 53.63859 | 9.99123 | 49 ft | 8 kts | 126° |
| 2026-04-25 14:42 | 53.63812 | 9.99234 | 48 ft | 15 kts | 126° |
| 2026-04-25 14:42 | 53.63790 | 9.99285 | 48 ft | 16 kts | 126° |
| 2026-04-25 14:42 | 53.63673 | 9.99556 | 49 ft | 15 kts | 126° |
| 2026-04-25 14:42 | 53.63619 | 9.99681 | 49 ft | 13 kts | 126° |
| 2026-04-25 14:43 | 53.63564 | 9.99811 | 50 ft | 14 kts | 126° |
| 2026-04-25 14:43 | 53.63513 | 9.99930 | 51 ft | 12 kts | 126° |
| 2026-04-25 14:43 | 53.63458 | 10.00058 | 48 ft | 14 kts | 126° |
| 2026-04-25 14:43 | 53.63412 | 10.00146 | 48 ft | 7 kts | 152° |
| 2026-04-25 14:44 | 53.63373 | 10.00168 | 47 ft | 5 kts | 154° |
| 2026-04-25 14:44 | 53.63360 | 10.00197 | 48 ft | 1 kts | 103° |
| 2026-04-25 14:44 | 53.63362 | 10.00207 | 48 ft | 1 kts | 83° |
| 2026-04-25 14:44 | 53.63365 | 10.00226 | 48 ft | 3 kts | 76° |
| 2026-04-25 14:45 | 53.63369 | 10.00269 | 48 ft | 4 kts | 83° |
| 2026-04-25 14:45 | 53.63371 | 10.00314 | 48 ft | 3 kts | 85° |
| 2026-04-25 14:45 | 53.63373 | 10.00343 | 48 ft | 2 kts | 86° |
| 2026-04-25 14:45 | 53.63373 | 10.00349 | 48 ft | 0 kts | 86° |